Time;durP1;ratioP1;P1;durP2;ratioP2;P2;SDS_P1;SDS_P2;PMS_P1;PMS_P2;Temp;Humidity;BMP_temperature;BMP_pressure;BME280_temperature;BME280_humidity;BME280_pressure;Samples;Min_cycle;Max_cycle;Signal;HPM_P1;HPM_P2
2024/02/03 00:01:40;;;;;;;10.57;7.77;;;;;;;7.04;71.84;97396.41;5012262;28;20184;-68
2024/02/03 00:04:06;;;;;;;11.43;7.30;;;;;;;7.08;71.20;97400.69;5023225;28;20632;-68
2024/02/03 00:06:31;;;;;;;9.13;8.23;;;;;;;7.11;71.24;97411.09;5022169;28;20179;-68
2024/02/03 00:08:57;;;;;;;11.53;8.50;;;;;;;7.18;70.96;97404.91;5017413;28;20218;-68
2024/02/03 00:11:22;;;;;;;13.97;7.90;;;;;;;7.15;70.77;97401.47;5008040;28;20561;-68
2024/02/03 00:13:48;;;;;;;8.70;7.70;;;;;;;7.03;70.40;97399.03;5020073;28;20214;-67
2024/02/03 00:16:13;;;;;;;11.70;7.10;;;;;;;7.10;70.54;97411.13;5020808;28;20172;-67
2024/02/03 00:18:38;;;;;;;8.67;7.27;;;;;;;7.05;70.39;97408.56;5016714;28;20172;-67
2024/02/03 00:21:04;;;;;;;10.27;9.17;;;;;;;7.06;70.44;97415.50;5019725;28;20188;-66
2024/02/03 00:23:30;;;;;;;7.73;7.03;;;;;;;7.08;70.05;97415.50;5006762;28;20740;-68
2024/02/03 00:25:56;;;;;;;7.70;6.60;;;;;;;7.07;70.24;97416.41;5016272;28;20670;-67
2024/02/03 00:28:22;;;;;;;11.10;7.17;;;;;;;7.02;70.54;97415.59;5019584;28;20283;-68
2024/02/03 00:30:48;;;;;;;8.40;7.50;;;;;;;7.05;70.02;97405.09;5010631;28;20679;-68
2024/02/03 00:33:14;;;;;;;7.00;6.30;;;;;;;7.19;70.10;97408.38;5023486;28;20206;-67
2024/02/03 00:35:40;;;;;;;8.83;6.80;;;;;;;7.00;70.29;97407.78;5016644;28;20903;-70
2024/02/03 00:38:05;;;;;;;9.00;7.33;;;;;;;7.03;69.99;97406.88;5023909;28;20768;-68
2024/02/03 00:40:31;;;;;;;8.43;7.00;;;;;;;6.99;70.28;97399.09;5019835;28;20180;-68
2024/02/03 00:42:56;;;;;;;8.23;6.80;;;;;;;7.02;70.72;97395.56;5031855;28;20194;-69
2024/02/03 00:45:22;;;;;;;9.40;6.73;;;;;;;7.00;70.72;97394.72;5016468;28;20663;-67
2024/02/03 00:47:47;;;;;;;7.23;6.43;;;;;;;7.10;70.39;97396.31;5008906;28;20283;-67
2024/02/03 00:50:14;;;;;;;7.27;6.27;;;;;;;7.08;70.44;97399.84;5015373;28;20608;-67
2024/02/03 00:52:43;;;;;;;8.00;6.27;;;;;;;6.92;70.85;97392.22;5019622;28;20722;-68
2024/02/03 00:55:09;;;;;;;7.10;6.40;;;;;;;6.85;71.09;97384.47;5019597;28;20458;-67
2024/02/03 00:57:36;;;;;;;7.27;6.53;;;;;;;6.85;71.20;97389.69;5005930;28;20443;-68
2024/02/03 01:00:03;;;;;;;7.47;6.07;;;;;;;6.82;71.20;97393.22;5008085;28;20521;-67
2024/02/03 01:02:29;;;;;;;7.90;6.30;;;;;;;6.75;71.73;97388.97;5010193;28;21132;-69
2024/02/03 01:04:54;;;;;;;6.57;5.97;;;;;;;6.77;71.07;97393.28;5015839;28;20467;-68
2024/02/03 01:07:20;;;;;;;7.27;6.43;;;;;;;6.86;70.69;97386.22;5020902;28;20180;-67
2024/02/03 01:09:45;;;;;;;8.93;6.30;;;;;;;6.87;71.22;97377.50;5017622;28;20199;-68
2024/02/03 01:12:11;;;;;;;8.73;6.40;;;;;;;6.85;71.40;97382.75;5007503;28;20192;-66
2024/02/03 01:14:39;;;;;;;7.07;6.37;;;;;;;6.81;71.02;97390.66;5013026;28;20210;-69
2024/02/03 01:17:05;;;;;;;8.17;6.07;;;;;;;6.77;70.86;97392.41;5014404;28;20180;-68
2024/02/03 01:19:31;;;;;;;6.93;5.77;;;;;;;6.80;71.00;97397.59;5011855;28;20807;-67
2024/02/03 01:21:56;;;;;;;8.17;5.87;;;;;;;6.73;70.60;97395.94;5015992;28;20664;-68
2024/02/03 01:24:22;;;;;;;7.73;6.10;;;;;;;6.78;70.90;97394.16;5007002;28;20196;-68
2024/02/03 01:26:47;;;;;;;6.77;6.13;;;;;;;6.82;71.01;97392.34;5016516;28;20648;-68
2024/02/03 01:29:13;;;;;;;8.17;6.73;;;;;;;6.72;71.37;97394.22;5023140;28;20712;-67
2024/02/03 01:31:39;;;;;;;11.50;7.60;;;;;;;6.68;71.03;97390.78;5012618;28;20591;-68
2024/02/03 01:34:04;;;;;;;8.30;6.40;;;;;;;6.74;70.83;97382.03;5007970;28;20207;-69
2024/02/03 01:36:30;;;;;;;7.20;6.50;;;;;;;6.67;70.70;97383.00;5013527;28;20225;-68
2024/02/03 01:38:56;;;;;;;8.47;6.40;;;;;;;6.68;70.81;97382.09;5014347;28;20184;-69
2024/02/03 01:41:21;;;;;;;8.83;6.03;;;;;;;6.57;71.32;97383.09;5023018;28;20460;-69
2024/02/03 01:43:47;;;;;;;6.50;5.57;;;;;;;6.57;71.18;97379.66;5021402;28;20219;-69
2024/02/03 01:46:13;;;;;;;7.40;6.03;;;;;;;6.64;71.08;97373.47;5016827;28;20184;-69
2024/02/03 01:48:40;;;;;;;7.30;6.53;;;;;;;6.63;70.80;97378.69;5014435;28;20214;-68
2024/02/03 01:51:07;;;;;;;8.93;6.93;;;;;;;6.69;69.75;97368.19;5018803;28;20442;-69
2024/02/03 01:53:32;;;;;;;6.93;5.80;;;;;;;6.57;70.10;97366.59;5019500;28;20452;-66
2024/02/03 01:55:59;;;;;;;9.97;6.63;;;;;;;6.52;69.68;97365.78;5023333;28;20435;-67
2024/02/03 01:58:25;;;;;;;10.23;6.30;;;;;;;6.56;69.37;97365.72;5018668;28;20230;-67
2024/02/03 02:00:50;;;;;;;7.37;6.57;;;;;;;6.57;68.95;97356.16;5013978;28;20434;-67
2024/02/03 02:03:16;;;;;;;7.50;6.50;;;;;;;6.46;69.68;97353.69;5018281;28;20446;-67
2024/02/03 02:05:44;;;;;;;7.57;6.33;;;;;;;6.56;69.06;97357.03;5016160;28;21321;-67
2024/02/03 02:08:10;;;;;;;6.80;6.00;;;;;;;6.46;69.01;97347.63;5018197;28;20894;-67
2024/02/03 02:10:36;;;;;;;7.20;6.00;;;;;;;6.48;69.04;97357.13;5011813;28;20512;-68
2024/02/03 02:13:02;;;;;;;7.37;6.03;;;;;;;6.36;69.60;97354.69;5018128;28;20192;-68
2024/02/03 02:15:28;;;;;;;9.67;7.43;;;;;;;6.37;69.22;97345.97;5021223;28;20872;-67
2024/02/03 02:18:00;;;;;;;8.17;7.00;;;;;;;6.42;68.98;97343.31;5018603;28;20479;-68
2024/02/03 02:20:27;;;;;;;6.63;5.90;;;;;;;6.38;69.23;97342.50;5021856;28;20669;-68
2024/02/03 02:22:53;;;;;;;8.17;5.67;;;;;;;6.40;69.09;97342.47;5026314;28;20462;-68
2024/02/03 02:25:19;;;;;;;6.23;5.63;;;;;;;6.38;69.00;97349.44;5014621;28;20893;-68
2024/02/03 02:27:44;;;;;;;11.20;6.90;;;;;;;6.36;68.96;97350.34;5014824;28;20191;-68
2024/02/03 02:30:10;;;;;;;8.73;5.70;;;;;;;6.26;69.17;97348.72;5022640;28;20330;-67
2024/02/03 02:32:36;;;;;;;7.63;6.03;;;;;;;6.26;69.40;97346.13;5018336;28;20307;-67
2024/02/03 02:35:02;;;;;;;7.33;6.47;;;;;;;6.32;68.86;97342.56;5026432;28;20790;-68
2024/02/03 02:37:28;;;;;;;11.63;6.23;;;;;;;6.31;68.89;97339.09;5012877;28;20456;-68
2024/02/03 02:39:53;;;;;;;7.80;5.90;;;;;;;6.27;69.36;97345.22;5018120;28;20604;-68
2024/02/03 02:42:19;;;;;;;6.83;5.63;;;;;;;6.15;69.50;97343.63;5020317;28;20520;-66
2024/02/03 02:44:44;;;;;;;6.37;5.30;;;;;;;6.18;69.57;97336.66;5027347;28;20310;-68
2024/02/03 02:47:10;;;;;;;7.70;6.07;;;;;;;6.12;69.25;97330.63;5021687;28;20715;-68
2024/02/03 02:49:35;;;;;;;8.00;6.37;;;;;;;6.13;69.61;97329.75;5019080;28;20215;-68
2024/02/03 02:52:01;;;;;;;8.27;6.43;;;;;;;6.21;69.10;97318.34;5021216;28;20187;-68
2024/02/03 02:54:26;;;;;;;7.10;5.80;;;;;;;6.21;69.24;97315.75;5020251;28;20200;-68
2024/02/03 02:56:51;;;;;;;6.53;5.90;;;;;;;6.33;68.81;97320.81;5025699;28;20175;-68
2024/02/03 02:59:17;;;;;;;7.70;6.60;;;;;;;6.16;69.51;97302.78;5018715;28;20184;-67
2024/02/03 03:01:43;;;;;;;6.57;5.90;;;;;;;6.16;69.39;97302.78;5016785;28;20534;-68
2024/02/03 03:04:08;;;;;;;8.17;7.07;;;;;;;6.17;69.10;97293.25;5024313;28;20199;-67
2024/02/03 03:06:34;;;;;;;8.13;6.03;;;;;;;6.27;68.38;97307.88;5024325;28;20171;-68
2024/02/03 03:09:00;;;;;;;7.10;6.03;;;;;;;6.23;68.51;97301.81;5015979;28;20680;-67
2024/02/03 03:11:25;;;;;;;7.47;5.63;;;;;;;6.19;68.18;97302.75;5009074;28;20180;-68
2024/02/03 03:13:51;;;;;;;8.03;5.90;;;;;;;6.22;67.57;97313.13;5015420;28;20540;-68
2024/02/03 03:16:16;;;;;;;7.47;5.50;;;;;;;6.19;67.85;97312.31;5021163;28;20240;-68
2024/02/03 03:18:42;;;;;;;7.87;5.50;;;;;;;6.27;67.57;97321.75;5017283;28;20172;-67
2024/02/03 03:21:08;;;;;;;7.37;5.90;;;;;;;6.22;67.49;97314.88;5022795;28;20188;-68
2024/02/03 03:23:34;;;;;;;5.03;4.53;;;;;;;6.04;68.01;97318.56;5011434;28;20924;-67
2024/02/03 03:26:00;;;;;;;9.20;5.40;;;;;;;6.03;67.82;97322.91;5016580;28;20459;-68
2024/02/03 03:28:26;;;;;;;5.97;5.37;;;;;;;6.07;68.13;97326.34;5017432;28;20526;-68
2024/02/03 03:30:52;;;;;;;6.93;5.77;;;;;;;6.08;67.42;97326.31;5016908;28;20481;-68
2024/02/03 03:33:17;;;;;;;6.10;5.40;;;;;;;6.04;67.68;97324.63;5024894;28;20812;-67
2024/02/03 03:35:43;;;;;;;5.87;5.27;;;;;;;5.91;67.83;97321.28;5011156;28;20257;-68
2024/02/03 03:38:10;;;;;;;9.97;5.87;;;;;;;5.98;68.15;97332.53;5024150;28;20182;-66
2024/02/03 03:40:37;;;;;;;9.03;5.90;;;;;;;5.98;67.87;97332.53;5012180;28;20184;-68
2024/02/03 03:43:03;;;;;;;7.63;5.60;;;;;;;6.00;67.85;97333.38;5021488;28;20434;-68
2024/02/03 03:45:29;;;;;;;7.50;5.83;;;;;;;5.96;68.20;97336.03;5015609;28;20507;-68
2024/02/03 03:47:54;;;;;;;9.10;5.60;;;;;;;5.95;68.20;97335.16;5010443;28;20447;-68
2024/02/03 03:50:20;;;;;;;8.10;5.77;;;;;;;6.00;67.54;97337.69;5017287;28;20184;-68
2024/02/03 03:52:45;;;;;;;7.00;5.40;;;;;;;5.97;68.06;97343.81;5018674;28;20206;-67
2024/02/03 03:55:11;;;;;;;7.60;5.97;;;;;;;5.94;67.84;97341.25;5021647;28;20199;-68
2024/02/03 03:57:36;;;;;;;9.40;5.50;;;;;;;5.99;67.84;97349.03;5023938;28;20207;-68
2024/02/03 04:00:05;;;;;;;6.17;5.57;;;;;;;6.01;67.88;97352.47;5009044;28;20230;-67
2024/02/03 04:02:30;;;;;;;6.10;5.50;;;;;;;6.01;67.82;97344.66;5011767;28;20200;-68
2024/02/03 04:04:55;;;;;;;6.70;6.00;;;;;;;6.01;67.99;97342.91;5013218;28;20811;-68
2024/02/03 04:07:21;;;;;;;6.97;6.27;;;;;;;6.00;68.16;97341.19;5018308;28;20180;-68
2024/02/03 04:09:49;;;;;;;7.37;5.80;;;;;;;6.00;68.37;97333.38;5014310;28;20207;-67
2024/02/03 04:12:15;;;;;;;8.20;6.00;;;;;;;5.93;68.50;97329.09;5008744;28;20183;-68
2024/02/03 04:14:42;;;;;;;7.73;6.30;;;;;;;5.98;68.52;97323.84;5012351;28;20999;-68
2024/02/03 04:17:08;;;;;;;7.97;6.60;;;;;;;5.93;68.69;97327.34;5017519;28;20183;-68
2024/02/03 04:19:33;;;;;;;8.50;6.13;;;;;;;5.85;68.80;97325.69;5008647;28;20445;-68
2024/02/03 04:21:59;;;;;;;8.77;6.80;;;;;;;5.83;69.38;97317.00;5022329;28;20841;-68
2024/02/03 04:24:24;;;;;;;8.10;6.33;;;;;;;5.82;69.25;97320.50;5009502;28;20804;-67
2024/02/03 04:26:49;;;;;;;8.47;6.87;;;;;;;5.89;69.17;97320.41;5018189;28;20176;-67
2024/02/03 04:29:15;;;;;;;6.87;6.20;;;;;;;5.85;69.43;97323.06;5013292;28;20715;-68
2024/02/03 04:31:42;;;;;;;7.17;6.00;;;;;;;5.88;69.40;97320.44;5012863;28;20275;-67
2024/02/03 04:34:08;;;;;;;11.13;6.57;;;;;;;5.89;69.00;97325.63;5015671;28;20850;-68
2024/02/03 04:36:33;;;;;;;8.27;6.60;;;;;;;5.83;68.88;97332.63;5010140;28;20443;-68
2024/02/03 04:38:59;;;;;;;7.27;6.57;;;;;;;5.84;69.24;97327.44;5012368;28;20180;-68
2024/02/03 04:41:24;;;;;;;8.30;7.50;;;;;;;5.83;69.57;97341.31;5018911;28;20732;-68
2024/02/03 04:43:50;;;;;;;7.23;6.53;;;;;;;5.71;69.64;97344.03;5017475;28;20208;-68
2024/02/03 04:46:15;;;;;;;8.93;6.80;;;;;;;5.69;69.95;97338.88;5014512;28;20192;-67
2024/02/03 04:48:43;;;;;;;9.43;7.10;;;;;;;5.64;70.38;97351.03;5013224;28;21982;-68
2024/02/03 04:51:09;;;;;;;9.20;7.73;;;;;;;5.70;70.41;97334.53;5013730;28;20195;-68
2024/02/03 04:53:34;;;;;;;10.47;7.40;;;;;;;5.77;70.30;97333.56;5019263;28;20459;-69
2024/02/03 04:56:00;;;;;;;7.77;7.00;;;;;;;5.77;70.26;97332.72;5019527;28;20235;-68
2024/02/03 04:58:25;;;;;;;10.47;7.10;;;;;;;5.80;70.19;97323.13;5016118;28;20299;-67
2024/02/03 05:00:51;;;;;;;9.30;7.83;;;;;;;5.76;70.05;97323.16;5021071;28;20188;-66
2024/02/03 05:03:17;;;;;;;10.70;7.27;;;;;;;5.76;70.41;97333.59;5019486;28;20635;-68
2024/02/03 05:05:42;;;;;;;8.23;7.23;;;;;;;5.71;70.13;97325.81;5024341;28;20653;-68
2024/02/03 05:08:08;;;;;;;8.40;7.60;;;;;;;5.62;70.75;97332.00;5016487;28;20459;-69
2024/02/03 05:10:33;;;;;;;8.47;7.57;;;;;;;5.62;71.12;97329.38;5017146;28;20228;-68
2024/02/03 05:12:59;;;;;;;9.30;7.83;;;;;;;5.75;70.33;97332.72;5013773;28;20183;-68
2024/02/03 05:15:24;;;;;;;9.20;8.30;;;;;;;5.46;71.75;97343.41;5019432;28;20674;-68
2024/02/03 05:17:49;;;;;;;10.30;8.30;;;;;;;5.74;70.60;97338.81;5023534;28;20191;-68
2024/02/03 05:20:15;;;;;;;11.03;8.00;;;;;;;5.53;71.44;97350.28;5009585;28;20180;-68
2024/02/03 05:22:41;;;;;;;10.67;8.13;;;;;;;5.65;71.05;97358.00;5019228;28;20210;-69
2024/02/03 05:25:08;;;;;;;13.00;7.97;;;;;;;5.60;71.02;97351.09;5006352;28;20661;-68
2024/02/03 05:27:33;;;;;;;11.20;9.10;;;;;;;5.68;71.14;97357.09;5009332;28;20541;-67
2024/02/03 05:29:59;;;;;;;10.80;8.47;;;;;;;5.68;71.16;97357.97;5017910;28;20459;-68
2024/02/03 05:32:24;;;;;;;9.80;8.67;;;;;;;5.62;71.35;97355.44;5016473;28;20662;-68
2024/02/03 05:34:49;;;;;;;13.60;8.43;;;;;;;5.60;71.19;97348.47;5017824;28;20226;-66
2024/02/03 05:37:15;;;;;;;10.13;8.83;;;;;;;5.71;71.25;97354.47;5023524;28;20202;-67
2024/02/03 05:39:40;;;;;;;10.50;8.20;;;;;;;5.66;71.18;97351.91;5017068;28;20891;-67
2024/02/03 05:42:06;;;;;;;12.13;9.40;;;;;;;5.65;71.64;97354.53;5014831;28;20179;-66
2024/02/03 05:44:31;;;;;;;11.67;9.17;;;;;;;5.59;72.28;97354.56;5016909;28;20205;-68
2024/02/03 05:46:56;;;;;;;11.23;8.70;;;;;;;5.51;72.14;97359.84;5014922;28;20230;-67
2024/02/03 05:49:22;;;;;;;10.57;9.10;;;;;;;5.53;72.43;97363.31;5019210;28;20207;-67
2024/02/03 05:51:48;;;;;;;12.63;8.70;;;;;;;5.55;72.51;97365.88;5011064;28;20192;-67
2024/02/03 05:54:13;;;;;;;11.30;8.80;;;;;;;5.56;72.55;97365.03;5015683;28;20464;-70
2024/02/03 05:56:39;;;;;;;10.87;8.77;;;;;;;5.47;72.52;97376.38;5021526;28;20259;-67
2024/02/03 05:59:04;;;;;;;9.93;8.37;;;;;;;5.68;72.02;97365.78;5021489;28;20185;-67
2024/02/03 06:01:29;;;;;;;14.53;10.10;;;;;;;5.54;72.64;97364.19;5012978;28;20179;-67
2024/02/03 06:03:55;;;;;;;13.20;9.53;;;;;;;5.46;72.65;97365.09;5032735;28;20243;-67
2024/02/03 06:06:21;;;;;;;11.13;9.13;;;;;;;5.56;72.81;97363.28;5035207;28;20194;-68
2024/02/03 06:08:46;;;;;;;10.10;8.90;;;;;;;5.48;73.04;97370.28;5032158;28;20231;-69
2024/02/03 06:11:12;;;;;;;12.53;9.97;;;;;;;5.55;72.72;97366.78;5028106;28;20500;-68
2024/02/03 06:13:37;;;;;;;11.17;9.97;;;;;;;5.67;72.29;97370.97;5008584;28;20223;-67
2024/02/03 06:16:03;;;;;;;13.80;9.90;;;;;;;5.52;72.77;97371.97;5011001;28;20187;-67
2024/02/03 06:18:28;;;;;;;12.93;10.20;;;;;;;5.62;72.48;97373.66;5012343;28;20183;-67
2024/02/03 06:20:54;;;;;;;20.87;10.70;;;;;;;5.56;72.30;97365.88;5018098;28;20187;-67
2024/02/03 06:23:19;;;;;;;14.10;9.60;;;;;;;5.61;71.93;97368.44;5022240;28;20188;-67
2024/02/03 06:25:45;;;;;;;14.17;10.10;;;;;;;5.46;72.35;97385.06;5006932;28;20555;-67
2024/02/03 06:28:11;;;;;;;13.63;9.37;;;;;;;5.60;72.00;97385.81;5017213;28;20211;-67
2024/02/03 06:30:37;;;;;;;12.80;9.43;;;;;;;5.63;71.43;97388.38;5012245;28;20176;-67
2024/02/03 06:33:04;;;;;;;9.93;8.43;;;;;;;5.63;70.98;97384.94;5016186;28;20433;-68
2024/02/03 06:35:30;;;;;;;12.07;9.73;;;;;;;5.57;71.44;97392.78;5009951;28;20454;-67
2024/02/03 06:37:55;;;;;;;10.33;9.23;;;;;;;5.45;71.60;97386.78;5019700;28;20446;-67
2024/02/03 06:40:22;;;;;;;10.23;9.00;;;;;;;5.34;71.94;97386.03;5024248;28;20402;-67
2024/02/03 06:42:49;;;;;;;12.33;8.80;;;;;;;5.46;71.70;97383.31;5018669;28;20881;-68
2024/02/03 06:45:17;;;;;;;11.80;9.27;;;;;;;5.28;72.21;97389.53;5013026;28;20550;-68
2024/02/03 06:47:42;;;;;;;12.37;8.70;;;;;;;5.41;71.77;97386.81;5021626;28;20513;-67
2024/02/03 06:50:08;;;;;;;12.90;9.20;;;;;;;5.55;71.30;97386.72;5017353;28;20549;-67
2024/02/03 06:52:34;;;;;;;16.30;10.77;;;;;;;5.45;71.82;97385.94;5019835;28;20235;-67
2024/02/03 06:54:59;;;;;;;12.93;10.63;;;;;;;5.60;70.90;97395.34;5020001;28;20250;-67
2024/02/03 06:57:25;;;;;;;11.43;9.53;;;;;;;5.78;70.56;97397.78;5015208;28;20435;-68
2024/02/03 06:59:50;;;;;;;11.60;9.83;;;;;;;6.40;68.57;97394.59;5022480;28;20192;-67
2024/02/03 07:02:15;;;;;;;11.93;8.47;;;;;;;7.11;65.32;97378.91;5017914;28;20183;-69
2024/02/03 07:04:41;;;;;;;11.23;9.77;;;;;;;7.51;64.03;97388.75;5017817;28;21033;-67
2024/02/03 07:07:06;;;;;;;13.00;9.67;;;;;;;7.84;61.99;97393.44;5021919;28;20266;-66
2024/02/03 07:09:32;;;;;;;12.80;9.83;;;;;;;8.45;60.50;97385.38;5011331;28;20750;-68
2024/02/03 07:11:57;;;;;;;15.50;9.30;;;;;;;8.83;59.00;97383.72;5020095;28;20184;-67
2024/02/03 07:14:23;;;;;;;11.17;9.70;;;;;;;9.07;57.87;97393.69;5012722;28;20210;-68
2024/02/03 07:16:48;;;;;;;15.60;10.67;;;;;;;9.67;56.08;97392.28;5024463;28;20211;-67
2024/02/03 07:19:13;;;;;;;9.83;8.10;;;;;;;9.82;55.14;97385.81;5021238;28;20164;-67
2024/02/03 07:21:39;;;;;;;14.50;9.57;;;;;;;10.38;54.28;97386.13;5020071;28;20757;-67
2024/02/03 07:24:04;;;;;;;22.23;10.53;;;;;;;10.80;52.27;97375.31;5017362;28;20195;-67
2024/02/03 07:26:29;;;;;;;15.47;10.90;;;;;;;11.52;50.97;97372.25;5024759;28;20184;-65
2024/02/03 07:28:55;;;;;;;9.80;8.80;;;;;;;11.77;49.40;97384.59;5015960;28;21012;-68
2024/02/03 07:31:28;;;;;;;14.07;10.70;;;;;;;11.63;49.27;97382.41;5020023;28;20175;-67
2024/02/03 07:33:54;;;;;;;9.93;8.93;;;;;;;12.02;48.81;97382.03;5018361;28;20299;-68
2024/02/03 07:36:21;;;;;;;10.00;9.00;;;;;;;12.04;48.04;97374.94;5013015;28;20438;-67
2024/02/03 07:38:46;;;;;;;10.60;9.50;;;;;;;12.27;47.36;97372.38;5026997;28;20399;-67
2024/02/03 07:41:14;;;;;;;11.90;8.90;;;;;;;13.08;45.97;97367.69;5016034;28;20465;-67
2024/02/03 07:43:40;;;;;;;11.23;10.07;;;;;;;13.46;44.53;97362.72;5016620;28;20489;-68
2024/02/03 07:46:05;;;;;;;11.23;10.10;;;;;;;13.34;44.25;97364.91;5019049;28;20508;-67
2024/02/03 07:48:31;;;;;;;11.17;10.07;;;;;;;13.72;44.03;97359.91;5018559;28;20269;-67
2024/02/03 07:50:56;;;;;;;10.30;9.20;;;;;;;13.47;44.18;97367.09;5020164;28;20609;-68
2024/02/03 07:53:21;;;;;;;10.60;9.47;;;;;;;14.32;42.92;97352.09;5023660;28;20187;-68
2024/02/03 07:55:47;;;;;;;11.53;10.10;;;;;;;14.42;42.03;97355.19;5015337;28;20183;-67
2024/02/03 07:58:12;;;;;;;14.17;10.07;;;;;;;14.44;42.06;97355.13;5017886;28;20237;-68
2024/02/03 08:00:38;;;;;;;20.73;10.40;;;;;;;14.72;41.24;97354.78;5025489;28;20940;-66
2024/02/03 08:03:04;;;;;;;27.77;9.77;;;;;;;14.92;41.00;97348.56;5021020;28;20222;-67
2024/02/03 08:05:29;;;;;;;21.30;10.50;;;;;;;15.20;40.06;97349.00;5023601;28;20199;-67
2024/02/03 08:07:54;;;;;;;22.40;10.00;;;;;;;15.57;39.70;97349.88;5017482;28;20184;-69
2024/02/03 08:10:20;;;;;;;13.90;9.70;;;;;;;15.60;38.94;97343.59;5016891;28;20270;-66
2024/02/03 08:12:45;;;;;;;11.90;9.00;;;;;;;16.18;37.99;97339.81;5018434;28;20188;-69
2024/02/03 08:15:11;;;;;;;10.07;9.07;;;;;;;16.47;37.42;97331.25;5015373;28;20252;-67
2024/02/03 08:17:37;;;;;;;12.83;9.60;;;;;;;16.76;36.50;97333.28;5025202;28;20718;-66
2024/02/03 08:20:03;;;;;;;9.83;8.87;;;;;;;16.69;36.05;97330.94;5018456;28;20964;-65
2024/02/03 08:22:29;;;;;;;14.03;9.63;;;;;;;16.87;36.20;97331.78;5019741;28;20430;-67
2024/02/03 08:24:55;;;;;;;13.20;9.80;;;;;;;17.19;35.09;97330.94;5017252;28;20540;-66
2024/02/03 08:27:20;;;;;;;9.13;8.27;;;;;;;17.11;35.51;97326.09;5024098;28;20178;-67
2024/02/03 08:29:46;;;;;;;9.00;8.20;;;;;;;17.38;35.30;97322.81;5014370;28;20196;-65
2024/02/03 08:32:11;;;;;;;11.37;8.93;;;;;;;17.40;35.12;97326.25;5017455;28;20192;-65
2024/02/03 08:34:36;;;;;;;15.10;10.10;;;;;;;17.45;35.22;97326.84;5016429;28;20191;-65
2024/02/03 08:37:02;;;;;;;15.90;9.57;;;;;;;17.52;34.77;97321.09;5018720;28;20231;-65
2024/02/03 08:39:28;;;;;;;10.90;9.73;;;;;;;17.75;34.55;97317.13;5014464;28;20176;-65
2024/02/03 08:41:53;;;;;;;12.73;9.23;;;;;;;17.80;34.50;97308.88;5025970;28;20179;-65
2024/02/03 08:44:18;;;;;;;10.20;9.20;;;;;;;18.19;34.02;97313.69;5027476;28;20183;-65
2024/02/03 08:46:44;;;;;;;10.10;9.20;;;;;;;18.46;33.83;97306.78;5025561;28;20191;-65
2024/02/03 08:49:09;;;;;;;11.63;10.53;;;;;;;18.51;33.35;97307.34;5024527;28;20207;-66
2024/02/03 08:51:35;;;;;;;9.87;8.97;;;;;;;18.74;32.93;97306.78;5025062;28;20180;-64
2024/02/03 08:54:00;;;;;;;15.00;10.10;;;;;;;18.85;32.85;97310.59;5024432;28;20298;-65
2024/02/03 08:56:26;;;;;;;12.03;10.83;;;;;;;19.00;32.72;97309.66;5024217;28;20642;-66
2024/02/03 08:58:51;;;;;;;11.77;10.50;;;;;;;18.86;32.56;97304.34;5024879;28;20192;-65
2024/02/03 09:01:16;;;;;;;10.67;9.43;;;;;;;18.95;32.72;97303.78;5023951;28;20647;-65
2024/02/03 09:03:42;;;;;;;12.40;10.67;;;;;;;18.61;32.97;97304.06;5024180;28;20195;-65
2024/02/03 09:06:11;;;;;;;17.30;10.43;;;;;;;19.01;33.02;97317.50;5024315;28;20815;-65
2024/02/03 09:08:36;;;;;;;12.93;10.93;;;;;;;19.03;32.50;97317.44;5024703;28;20199;-64
2024/02/03 09:11:01;;;;;;;17.47;11.73;;;;;;;18.94;33.00;97324.19;5024520;28;20444;-65
2024/02/03 09:13:27;;;;;;;23.23;11.33;;;;;;;18.93;33.10;97316.31;5024653;28;20172;-65
2024/02/03 09:15:52;;;;;;;15.93;11.03;;;;;;;18.83;33.35;97314.22;5024351;28;20214;-64
2024/02/03 09:18:18;;;;;;;13.33;9.90;;;;;;;18.48;33.92;97315.53;5026303;28;20197;-64
2024/02/03 09:20:43;;;;;;;16.37;10.87;;;;;;;18.05;34.48;97324.28;5025231;28;20186;-63
2024/02/03 09:23:08;;;;;;;21.60;12.87;;;;;;;17.73;35.57;97323.47;5024774;28;20183;-65
2024/02/03 09:25:34;;;;;;;11.40;9.73;;;;;;;17.45;36.30;97325.03;5024428;28;20203;-65
2024/02/03 09:27:59;;;;;;;12.00;10.30;;;;;;;17.14;36.94;97324.09;5024740;28;20179;-65
2024/02/03 09:30:24;;;;;;;10.93;9.83;;;;;;;16.91;37.34;97330.69;5024257;28;20559;-64
2024/02/03 09:32:50;;;;;;;11.20;10.10;;;;;;;16.69;37.66;97341.53;5024314;28;20278;-65
2024/02/03 09:35:15;;;;;;;10.60;9.50;;;;;;;16.43;38.31;97350.88;5024391;28;20195;-64
2024/02/03 09:37:44;;;;;;;14.70;10.40;;;;;;;16.28;38.49;97346.38;5024682;28;20904;-65
2024/02/03 09:40:22;;;;;;;27.80;12.80;;;;;;;16.29;38.67;97354.22;5024537;28;20182;-64
2024/02/03 09:42:49;;;;;;;19.80;10.10;;;;;;;16.60;38.65;97352.63;5025322;28;20501;-64
2024/02/03 09:45:15;;;;;;;24.17;10.73;;;;;;;16.48;38.39;97363.88;5024730;28;20456;-65
2024/02/03 09:47:42;;;;;;;44.90;11.93;;;;;;;16.42;38.01;97358.91;5005677;28;20425;-64
2024/02/03 09:50:08;;;;;;;62.10;16.67;;;;;;;16.25;38.43;97359.75;5005158;28;20458;-64
2024/02/03 09:52:34;;;;;;;97.00;17.30;;;;;;;16.51;38.61;97363.72;5004901;28;20430;-66
2024/02/03 09:55:00;;;;;;;127.10;21.30;;;;;;;16.69;37.80;97373.34;5019050;28;20507;-65
2024/02/03 09:57:26;;;;;;;24.00;10.87;;;;;;;16.35;38.53;97368.13;5004682;28;20502;-64
2024/02/03 09:59:52;;;;;;;15.57;9.77;;;;;;;16.58;38.11;97372.19;5004177;28;20548;-65
2024/02/03 10:02:18;;;;;;;21.47;11.10;;;;;;;16.48;38.45;97379.78;5004588;28;20505;-65
2024/02/03 10:04:47;;;;;;;12.03;8.80;;;;;;;16.33;38.57;97373.50;5019367;28;20278;-65
2024/02/03 10:07:18;;;;;;;18.57;10.20;;;;;;;16.36;38.47;97372.47;5024410;28;20259;-65
2024/02/03 10:09:43;;;;;;;11.70;10.60;;;;;;;15.10;40.57;97375.97;5023970;28;20821;-65
2024/02/03 10:12:19;;;;;;;63.63;12.60;;;;;;;15.67;40.31;97371.47;5024363;28;20410;-65
2024/02/03 10:14:44;;;;;;;102.37;19.43;;;;;;;16.16;39.39;97368.19;5028480;28;20685;-65
2024/02/03 10:17:10;;;;;;;63.07;15.03;;;;;;;15.95;39.04;97365.69;5028084;28;20468;-65
2024/02/03 10:19:35;;;;;;;13.27;9.53;;;;;;;15.98;39.42;97364.69;5028619;28;20191;-65
2024/02/03 10:22:00;;;;;;;36.33;11.80;;;;;;;16.05;38.85;97355.50;5028218;28;20642;-65
2024/02/03 10:24:28;;;;;;;20.77;9.40;;;;;;;16.02;39.02;97356.50;5027701;28;20257;-65
2024/02/03 10:26:58;;;;;;;14.40;8.20;;;;;;;15.91;39.34;97355.34;5027630;28;20832;-65
2024/02/03 10:29:23;;;;;;;12.20;7.27;;;;;;;16.14;38.76;97346.25;5027802;28;20461;-64
2024/02/03 10:31:49;;;;;;;21.13;10.37;;;;;;;16.09;38.99;97343.81;5028201;28;20410;-63
2024/02/03 10:34:14;;;;;;;88.40;17.80;;;;;;;16.23;38.69;97338.69;5027701;28;20194;-65
2024/02/03 10:36:40;;;;;;;105.97;20.50;;;;;;;16.20;39.16;97345.91;5028289;28;20223;-65
2024/02/03 10:39:06;;;;;;;204.27;30.70;;;;;;;16.44;38.68;97342.00;5027893;28;20937;-65
2024/02/03 10:41:38;;;;;;;67.10;16.00;;;;;;;16.43;38.75;97344.72;5028219;28;20752;-64
2024/02/03 10:44:07;;;;;;;68.53;15.20;;;;;;;16.21;38.81;97345.00;5028171;28;20852;-65
2024/02/03 10:46:37;;;;;;;171.90;24.17;;;;;;;16.44;38.72;97349.06;5027777;28;20449;-64
2024/02/03 10:49:09;;;;;;;21.93;8.67;;;;;;;16.33;38.48;97344.34;5027705;28;20488;-66
2024/02/03 10:51:35;;;;;;;34.00;9.90;;;;;;;15.96;39.78;97329.47;5028858;28;20467;-63
2024/02/03 10:54:05;;;;;;;13.80;8.67;;;;;;;15.97;39.21;97326.78;5026080;28;20438;-65
2024/02/03 10:56:33;;;;;;;31.83;9.77;;;;;;;15.13;41.17;97333.50;5027752;28;20413;-65
2024/02/03 10:58:59;;;;;;;48.37;11.07;;;;;;;15.02;41.18;97329.59;5027494;28;20427;-65
2024/02/03 11:01:33;;;;;;;37.23;10.57;;;;;;;15.40;41.77;97326.03;5028022;28;20416;-66
2024/02/03 11:04:00;;;;;;;35.47;11.13;;;;;;;15.20;40.86;97319.06;5028641;28;20198;-63
2024/02/03 11:06:29;;;;;;;57.80;13.53;;;;;;;15.74;40.94;97309.41;5034016;28;20429;-65
2024/02/03 11:09:13;;;;;;;56.07;11.37;;;;;;;16.13;39.80;97316.22;5033920;28;20465;-66
2024/02/03 11:11:44;;;;;;;26.87;9.53;;;;;;;15.91;39.81;97308.53;5033404;28;20414;-65
2024/02/03 11:14:12;;;;;;;34.90;9.23;;;;;;;15.85;40.01;97301.78;5038849;28;20517;-64
2024/02/03 11:16:38;;;;;;;13.10;7.93;;;;;;;15.06;41.40;97305.63;5028596;28;20409;-65
2024/02/03 11:19:04;;;;;;;12.70;7.57;;;;;;;15.61;40.82;97297.66;5027515;28;20485;-65
2024/02/03 11:21:29;;;;;;;7.10;6.40;;;;;;;16.10;39.75;97295.22;5027307;28;20968;-65
2024/02/03 11:23:54;;;;;;;7.00;5.90;;;;;;;16.28;39.18;97283.66;5027498;28;20188;-64
2024/02/03 11:26:21;;;;;;;20.30;7.77;;;;;;;16.30;38.90;97292.38;5026931;28;20233;-65